sensor_id;sensor_type;location;lat;lon;timestamp;pressure;altitude;pressure_sealevel;temperature;humidity
68399;BME280;56258;52.196;13.868;2022-08-16T00:02:29;100242.78;;;28.02;45.95
68399;BME280;56258;52.196;13.868;2022-08-16T00:04:56;100236.50;;;28.02;45.96
68399;BME280;56258;52.196;13.868;2022-08-16T00:07:26;100244.09;;;28.00;45.80
68399;BME280;56258;52.196;13.868;2022-08-16T00:09:55;100239.69;;;27.99;46.07
68399;BME280;56258;52.196;13.868;2022-08-16T00:12:23;100233.66;;;27.97;46.23
68399;BME280;56258;52.196;13.868;2022-08-16T00:14:52;100240.88;;;28.03;45.73
68399;BME280;56258;52.196;13.868;2022-08-16T00:17:23;100242.28;;;28.05;45.92
68399;BME280;56258;52.196;13.868;2022-08-16T00:19:50;100246.91;;;28.05;45.76
68399;BME280;56258;52.196;13.868;2022-08-16T00:22:23;100250.63;;;27.99;46.21
68399;BME280;56258;52.196;13.868;2022-08-16T00:24:53;100261.13;;;27.90;46.47
68399;BME280;56258;52.196;13.868;2022-08-16T00:27:21;100253.88;;;27.96;46.12
68399;BME280;56258;52.196;13.868;2022-08-16T00:29:48;100250.22;;;27.90;46.61
68399;BME280;56258;52.196;13.868;2022-08-16T00:32:35;100243.25;;;27.99;46.00
68399;BME280;56258;52.196;13.868;2022-08-16T00:35:05;100242.94;;;27.96;46.10
68399;BME280;56258;52.196;13.868;2022-08-16T00:37:42;100245.41;;;27.97;46.16
68399;BME280;56258;52.196;13.868;2022-08-16T00:40:49;100250.31;;;27.95;46.23
68399;BME280;56258;52.196;13.868;2022-08-16T00:43:29;100255.78;;;27.95;46.22
68399;BME280;56258;52.196;13.868;2022-08-16T00:46:27;100265.78;;;27.89;46.15
68399;BME280;56258;52.196;13.868;2022-08-16T00:49:03;100269.59;;;27.88;46.56
68399;BME280;56258;52.196;13.868;2022-08-16T00:51:30;100270.19;;;27.90;46.16
68399;BME280;56258;52.196;13.868;2022-08-16T00:53:59;100266.72;;;27.95;46.12
68399;BME280;56258;52.196;13.868;2022-08-16T00:56:29;100268.28;;;27.91;45.81
68399;BME280;56258;52.196;13.868;2022-08-16T00:59:19;100274.72;;;27.85;46.39
68399;BME280;56258;52.196;13.868;2022-08-16T01:01:50;100277.78;;;27.88;45.91
68399;BME280;56258;52.196;13.868;2022-08-16T01:04:20;100277.31;;;27.92;46.07
68399;BME280;56258;52.196;13.868;2022-08-16T01:06:57;100272.91;;;27.90;45.93
68399;BME280;56258;52.196;13.868;2022-08-16T01:09:28;100277.78;;;27.88;46.38
68399;BME280;56258;52.196;13.868;2022-08-16T01:12:01;100281.00;;;27.85;46.07
68399;BME280;56258;52.196;13.868;2022-08-16T01:14:32;100277.31;;;27.92;46.22
68399;BME280;56258;52.196;13.868;2022-08-16T01:17:02;100275.66;;;27.90;45.97
68399;BME280;56258;52.196;13.868;2022-08-16T01:19:39;100282.91;;;27.85;46.23
68399;BME280;56258;52.196;13.868;2022-08-16T01:25:20;100285.31;;;27.81;46.19
68399;BME280;56258;52.196;13.868;2022-08-16T01:28:02;100295.69;;;27.79;46.41
68399;BME280;56258;52.196;13.868;2022-08-16T01:30:34;100293.28;;;27.83;46.33
68399;BME280;56258;52.196;13.868;2022-08-16T01:33:15;100295.44;;;27.81;46.27
68399;BME280;56258;52.196;13.868;2022-08-16T01:35:49;100296.31;;;27.70;46.57
68399;BME280;56258;52.196;13.868;2022-08-16T01:38:53;100302.59;;;27.70;46.64
68399;BME280;56258;52.196;13.868;2022-08-16T01:41:25;100295.66;;;27.51;46.73
68399;BME280;56258;52.196;13.868;2022-08-16T01:43:56;100291.72;;;27.58;46.90
68399;BME280;56258;52.196;13.868;2022-08-16T01:49:12;100289.78;;;27.71;46.38
68399;BME280;56258;52.196;13.868;2022-08-16T01:51:42;100289.53;;;27.72;46.56
68399;BME280;56258;52.196;13.868;2022-08-16T01:54:10;100287.88;;;27.71;46.46
68399;BME280;56258;52.196;13.868;2022-08-16T01:56:41;100289.78;;;27.71;46.35
68399;BME280;56258;52.196;13.868;2022-08-16T01:59:11;100296.78;;;27.67;46.78
68399;BME280;56258;52.196;13.868;2022-08-16T02:01:44;100304.41;;;27.53;47.23
68399;BME280;56258;52.196;13.868;2022-08-16T02:04:20;100301.69;;;27.53;46.64
68399;BME280;56258;52.196;13.868;2022-08-16T02:07:07;100295.69;;;27.39;47.54
68399;BME280;56258;52.196;13.868;2022-08-16T02:09:38;100296.44;;;27.35;47.54
68399;BME280;56258;52.196;13.868;2022-08-16T02:12:06;100302.78;;;27.52;47.13
68399;BME280;56258;52.196;13.868;2022-08-16T02:14:54;100309.75;;;27.59;46.72
68399;BME280;56258;52.196;13.868;2022-08-16T02:17:22;100302.13;;;27.61;46.88
68399;BME280;56258;52.196;13.868;2022-08-16T02:19:53;100311.06;;;27.57;46.46
68399;BME280;56258;52.196;13.868;2022-08-16T02:22:26;100307.84;;;27.60;46.56
68399;BME280;56258;52.196;13.868;2022-08-16T02:25:10;100314.38;;;27.59;46.56
68399;BME280;56258;52.196;13.868;2022-08-16T02:27:43;100309.22;;;27.46;47.00
68399;BME280;56258;52.196;13.868;2022-08-16T02:30:20;100308.53;;;27.39;47.54
68399;BME280;56258;52.196;13.868;2022-08-16T02:33:08;100311.13;;;27.45;47.00
68399;BME280;56258;52.196;13.868;2022-08-16T02:35:36;100312.78;;;27.46;46.91
68399;BME280;56258;52.196;13.868;2022-08-16T02:38:23;100318.00;;;27.48;47.07
68399;BME280;56258;52.196;13.868;2022-08-16T02:40:50;100320.72;;;27.48;47.00
68399;BME280;56258;52.196;13.868;2022-08-16T02:43:20;100327.34;;;27.52;46.80
68399;BME280;56258;52.196;13.868;2022-08-16T02:45:53;100331.47;;;27.54;46.69
68399;BME280;56258;52.196;13.868;2022-08-16T02:48:19;100334.00;;;27.56;46.41
68399;BME280;56258;52.196;13.868;2022-08-16T02:51:00;100334.56;;;27.58;46.73
68399;BME280;56258;52.196;13.868;2022-08-16T02:53:34;100333.75;;;27.57;46.69
68399;BME280;56258;52.196;13.868;2022-08-16T02:56:03;100335.78;;;27.50;46.62
68399;BME280;56258;52.196;13.868;2022-08-16T02:58:35;100336.28;;;27.47;46.88
68399;BME280;56258;52.196;13.868;2022-08-16T03:01:02;100341.38;;;27.44;47.27
68399;BME280;56258;52.196;13.868;2022-08-16T03:03:29;100329.66;;;27.31;47.01
68399;BME280;56258;52.196;13.868;2022-08-16T03:06:17;100318.06;;;27.24;47.29
68399;BME280;56258;52.196;13.868;2022-08-16T03:09:06;100324.41;;;27.01;48.57
68399;BME280;56258;52.196;13.868;2022-08-16T03:11:39;100324.41;;;27.01;48.74
68399;BME280;56258;52.196;13.868;2022-08-16T03:14:05;100328.16;;;27.24;48.07
68399;BME280;56258;52.196;13.868;2022-08-16T03:16:33;100328.00;;;27.30;48.10
68399;BME280;56258;52.196;13.868;2022-08-16T03:19:19;100319.94;;;27.36;47.69
68399;BME280;56258;52.196;13.868;2022-08-16T03:21:47;100322.75;;;27.41;47.61
68399;BME280;56258;52.196;13.868;2022-08-16T03:24:17;100327.91;;;27.25;48.04
68399;BME280;56258;52.196;13.868;2022-08-16T03:26:57;100339.19;;;27.17;48.60
68399;BME280;56258;52.196;13.868;2022-08-16T03:29:30;100327.81;;;26.97;48.95
68399;BME280;56258;52.196;13.868;2022-08-16T03:31:58;100328.44;;;26.87;49.20
68399;BME280;56258;52.196;13.868;2022-08-16T03:34:28;100345.63;;;26.88;49.47
68399;BME280;56258;52.196;13.868;2022-08-16T03:36:56;100346.22;;;26.90;49.40
68399;BME280;56258;52.196;13.868;2022-08-16T03:39:23;100350.03;;;26.89;49.17
68399;BME280;56258;52.196;13.868;2022-08-16T03:41:51;100341.72;;;26.84;49.96
68399;BME280;56258;52.196;13.868;2022-08-16T03:44:27;100348.00;;;26.84;49.64
68399;BME280;56258;52.196;13.868;2022-08-16T03:47:14;100353.81;;;26.88;49.73
68399;BME280;56258;52.196;13.868;2022-08-16T03:49:46;100347.16;;;26.84;49.80
68399;BME280;56258;52.196;13.868;2022-08-16T03:52:18;100356.41;;;26.83;49.54
68399;BME280;56258;52.196;13.868;2022-08-16T03:54:46;100357.50;;;26.82;50.07
68399;BME280;56258;52.196;13.868;2022-08-16T03:57:24;100357.50;;;26.82;49.96
68399;BME280;56258;52.196;13.868;2022-08-16T04:00:25;100361.03;;;26.82;49.92
68399;BME280;56258;52.196;13.868;2022-08-16T04:03:06;100357.50;;;26.82;49.70
68399;BME280;56258;52.196;13.868;2022-08-16T04:05:42;100358.06;;;26.84;50.13
68399;BME280;56258;52.196;13.868;2022-08-16T04:08:12;100361.19;;;26.87;50.32
68399;BME280;56258;52.196;13.868;2022-08-16T04:10:50;100367.81;;;27.03;49.85
68399;BME280;56258;52.196;13.868;2022-08-16T04:13:18;100372.28;;;26.97;50.11
68399;BME280;56258;52.196;13.868;2022-08-16T04:16:05;100370.44;;;26.86;50.46
68399;BME280;56258;52.196;13.868;2022-08-16T04:18:31;100376.59;;;26.82;50.46
68399;BME280;56258;52.196;13.868;2022-08-16T04:20:59;100380.97;;;26.83;50.72
68399;BME280;56258;52.196;13.868;2022-08-16T04:23:28;100380.97;;;26.83;50.08
68399;BME280;56258;52.196;13.868;2022-08-16T04:25:55;100382.16;;;26.87;50.44
68399;BME280;56258;52.196;13.868;2022-08-16T04:28:27;100388.66;;;26.86;50.42
68399;BME280;56258;52.196;13.868;2022-08-16T04:31:13;100393.44;;;26.90;50.78
68399;BME280;56258;52.196;13.868;2022-08-16T04:33:40;100394.50;;;26.89;50.74
68399;BME280;56258;52.196;13.868;2022-08-16T04:36:17;100390.22;;;26.93;50.47
68399;BME280;56258;52.196;13.868;2022-08-16T04:38:45;100391.63;;;26.96;50.70
68399;BME280;56258;52.196;13.868;2022-08-16T04:41:15;100386.66;;;26.93;50.25
68399;BME280;56258;52.196;13.868;2022-08-16T04:43:43;100394.13;;;26.97;50.50
68399;BME280;56258;52.196;13.868;2022-08-16T04:46:10;100402.09;;;26.99;50.31
68399;BME280;56258;52.196;13.868;2022-08-16T04:48:59;100393.91;;;27.22;49.40
68399;BME280;56258;52.196;13.868;2022-08-16T04:51:26;100396.69;;;27.51;48.93
68399;BME280;56258;52.196;13.868;2022-08-16T04:54:01;100401.50;;;27.60;48.58
68399;BME280;56258;52.196;13.868;2022-08-16T04:56:28;100398.53;;;27.74;48.94
68399;BME280;56258;52.196;13.868;2022-08-16T04:58:55;100395.56;;;27.75;48.92
68399;BME280;56258;52.196;13.868;2022-08-16T05:01:23;100403.38;;;27.83;48.56
68399;BME280;56258;52.196;13.868;2022-08-16T05:04:10;100410.81;;;27.88;48.10
68399;BME280;56258;52.196;13.868;2022-08-16T05:06:45;100405.84;;;27.85;48.14
68399;BME280;56258;52.196;13.868;2022-08-16T05:09:13;100396.25;;;27.82;48.09
68399;BME280;56258;52.196;13.868;2022-08-16T05:11:42;100404.28;;;27.89;47.56
68399;BME280;56258;52.196;13.868;2022-08-16T05:14:09;100408.09;;;27.88;47.64
68399;BME280;56258;52.196;13.868;2022-08-16T05:16:36;100410.25;;;27.86;47.64
68399;BME280;56258;52.196;13.868;2022-08-16T05:19:03;100410.47;;;27.84;47.74
68399;BME280;56258;52.196;13.868;2022-08-16T05:21:37;100405.50;;;27.81;47.67
68399;BME280;56258;52.196;13.868;2022-08-16T05:24:06;100404.44;;;27.82;47.80
68399;BME280;56258;52.196;13.868;2022-08-16T05:26:34;100411.44;;;27.78;47.27
68399;BME280;56258;52.196;13.868;2022-08-16T05:29:08;100411.13;;;27.75;47.88
68399;BME280;56258;52.196;13.868;2022-08-16T05:31:40;100419.41;;;27.80;47.01
68399;BME280;56258;52.196;13.868;2022-08-16T05:34:14;100414.78;;;27.80;47.12
68399;BME280;56258;52.196;13.868;2022-08-16T05:36:46;100416.56;;;27.75;47.05
68399;BME280;56258;52.196;13.868;2022-08-16T05:39:17;100410.41;;;27.79;46.93
68399;BME280;56258;52.196;13.868;2022-08-16T05:41:46;100415.25;;;27.77;46.93
68399;BME280;56258;52.196;13.868;2022-08-16T05:44:18;100415.25;;;27.77;47.06
68399;BME280;56258;52.196;13.868;2022-08-16T05:46:55;100410.72;;;27.83;46.97
68399;BME280;56258;52.196;13.868;2022-08-16T05:49:22;100416.44;;;27.81;46.79
68399;BME280;56258;52.196;13.868;2022-08-16T05:51:50;100408.00;;;27.83;46.34
68399;BME280;56258;52.196;13.868;2022-08-16T05:54:17;100411.56;;;27.83;46.60
68399;BME280;56258;52.196;13.868;2022-08-16T05:56:50;100416.19;;;27.83;46.52
68399;BME280;56258;52.196;13.868;2022-08-16T05:59:18;100412.53;;;27.77;46.93
68399;BME280;56258;52.196;13.868;2022-08-16T06:01:47;100409.22;;;27.75;46.77
68399;BME280;56258;52.196;13.868;2022-08-16T06:04:18;100417.06;;;27.72;46.63
68399;BME280;56258;52.196;13.868;2022-08-16T06:07:03;100420.03;;;27.70;47.11
68399;BME280;56258;52.196;13.868;2022-08-16T06:09:35;100425.50;;;27.70;46.51
68399;BME280;56258;52.196;13.868;2022-08-16T06:12:11;100428.72;;;27.67;47.18
68399;BME280;56258;52.196;13.868;2022-08-16T06:14:52;100430.38;;;27.68;47.00
68399;BME280;56258;52.196;13.868;2022-08-16T06:17:23;100432.50;;;27.66;46.55
68399;BME280;56258;52.196;13.868;2022-08-16T06:20:10;100438.59;;;27.68;46.83
68399;BME280;56258;52.196;13.868;2022-08-16T06:22:38;100437.25;;;27.71;47.00
68399;BME280;56258;52.196;13.868;2022-08-16T06:25:05;100442.59;;;27.66;46.70
68399;BME280;56258;52.196;13.868;2022-08-16T06:27:32;100442.38;;;27.67;46.51
68399;BME280;56258;52.196;13.868;2022-08-16T06:30:08;100441.53;;;27.67;46.90
68399;BME280;56258;52.196;13.868;2022-08-16T06:32:35;100449.97;;;27.65;46.54
68399;BME280;56258;52.196;13.868;2022-08-16T06:35:09;100449.34;;;27.63;47.00
68399;BME280;56258;52.196;13.868;2022-08-16T06:37:37;100447.44;;;27.63;46.48
68399;BME280;56258;52.196;13.868;2022-08-16T06:40:11;100448.28;;;27.64;46.56
68399;BME280;56258;52.196;13.868;2022-08-16T06:42:41;100450.78;;;27.66;46.48
68399;BME280;56258;52.196;13.868;2022-08-16T06:45:14;100451.50;;;27.61;46.42
68399;BME280;56258;52.196;13.868;2022-08-16T06:47:41;100458.03;;;27.60;46.74
68399;BME280;56258;52.196;13.868;2022-08-16T06:50:20;100458.88;;;27.49;46.77
68399;BME280;56258;52.196;13.868;2022-08-16T06:52:55;100464.59;;;27.47;46.67
68399;BME280;56258;52.196;13.868;2022-08-16T06:55:34;100464.13;;;27.27;47.44
68399;BME280;56258;52.196;13.868;2022-08-16T06:58:04;100472.81;;;27.12;47.87
68399;BME280;56258;52.196;13.868;2022-08-16T07:00:34;100468.88;;;27.08;47.86
68399;BME280;56258;52.196;13.868;2022-08-16T07:03:04;100476.84;;;27.21;47.39
68399;BME280;56258;52.196;13.868;2022-08-16T07:05:52;100480.03;;;27.30;47.49
68399;BME280;56258;52.196;13.868;2022-08-16T07:08:19;100488.34;;;27.35;46.81
68399;BME280;56258;52.196;13.868;2022-08-16T07:10:46;100490.69;;;27.43;46.66
68399;BME280;56258;52.196;13.868;2022-08-16T07:13:13;100493.91;;;27.52;46.91
68399;BME280;56258;52.196;13.868;2022-08-16T07:16:00;100497.81;;;27.56;46.24
68399;BME280;56258;52.196;13.868;2022-08-16T07:18:28;100491.41;;;27.50;46.37
68399;BME280;56258;52.196;13.868;2022-08-16T07:20:56;100502.59;;;27.37;47.02
68399;BME280;56258;52.196;13.868;2022-08-16T07:23:28;100494.25;;;27.32;47.58
68399;BME280;56258;52.196;13.868;2022-08-16T07:26:07;100493.56;;;27.37;46.88
68399;BME280;56258;52.196;13.868;2022-08-16T07:28:34;100493.22;;;27.45;46.82
68399;BME280;56258;52.196;13.868;2022-08-16T07:31:01;100493.31;;;27.38;46.80
68399;BME280;56258;52.196;13.868;2022-08-16T07:33:33;100494.63;;;27.36;46.96
68399;BME280;56258;52.196;13.868;2022-08-16T07:36:20;100496.78;;;27.33;47.21
68399;BME280;56258;52.196;13.868;2022-08-16T07:38:48;100492.50;;;27.38;47.29
68399;BME280;56258;52.196;13.868;2022-08-16T07:41:15;100499.97;;;27.42;47.18
68399;BME280;56258;52.196;13.868;2022-08-16T07:43:44;100493.41;;;27.43;46.52
68399;BME280;56258;52.196;13.868;2022-08-16T07:46:13;100498.19;;;27.48;46.43
68399;BME280;56258;52.196;13.868;2022-08-16T07:49:00;100495.22;;;27.49;46.67
68399;BME280;56258;52.196;13.868;2022-08-16T07:51:30;100494.47;;;27.54;46.71
68399;BME280;56258;52.196;13.868;2022-08-16T07:54:05;100503.31;;;27.44;47.05
68399;BME280;56258;52.196;13.868;2022-08-16T07:56:36;100500.19;;;27.52;46.95
68399;BME280;56258;52.196;13.868;2022-08-16T07:59:05;100503.03;;;27.57;46.44
68399;BME280;56258;52.196;13.868;2022-08-16T08:01:33;100499.59;;;27.62;46.38
68399;BME280;56258;52.196;13.868;2022-08-16T08:04:00;100500.31;;;27.69;45.95
68399;BME280;56258;52.196;13.868;2022-08-16T08:06:30;100503.94;;;27.86;45.67
68399;BME280;56258;52.196;13.868;2022-08-16T08:08:59;100503.94;;;27.86;45.63
68399;BME280;56258;52.196;13.868;2022-08-16T08:11:27;100517.81;;;27.97;45.65
68399;BME280;56258;52.196;13.868;2022-08-16T08:13:55;100513.44;;;27.96;45.69
68399;BME280;56258;52.196;13.868;2022-08-16T08:16:30;100519.00;;;28.01;45.42
68399;BME280;56258;52.196;13.868;2022-08-16T08:18:59;100518.72;;;28.14;45.34
68399;BME280;56258;52.196;13.868;2022-08-16T08:21:30;100518.41;;;27.99;45.49
68399;BME280;56258;52.196;13.868;2022-08-16T08:24:19;100530.53;;;28.03;45.55
68399;BME280;56258;52.196;13.868;2022-08-16T08:26:47;100520.53;;;28.08;45.22
68399;BME280;56258;52.196;13.868;2022-08-16T08:29:17;100525.16;;;28.08;45.12
68399;BME280;56258;52.196;13.868;2022-08-16T08:31:51;100526.31;;;28.12;45.29
68399;BME280;56258;52.196;13.868;2022-08-16T08:34:18;100530.97;;;28.11;45.15
68399;BME280;56258;52.196;13.868;2022-08-16T08:36:48;100523.22;;;28.20;44.82
68399;BME280;56258;52.196;13.868;2022-08-16T08:39:20;100521.88;;;28.23;45.04
68399;BME280;56258;52.196;13.868;2022-08-16T08:41:47;100517.59;;;28.38;44.49
68399;BME280;56258;52.196;13.868;2022-08-16T08:44:15;100528.81;;;28.54;44.21
68399;BME280;56258;52.196;13.868;2022-08-16T08:46:59;100524.50;;;28.58;43.83
68399;BME280;56258;52.196;13.868;2022-08-16T08:49:30;100523.53;;;28.64;43.82
68399;BME280;56258;52.196;13.868;2022-08-16T08:52:17;100524.59;;;28.63;43.95
68399;BME280;56258;52.196;13.868;2022-08-16T08:55:03;100518.47;;;28.72;43.42
68399;BME280;56258;52.196;13.868;2022-08-16T08:57:38;100529.16;;;28.74;43.60
68399;BME280;56258;52.196;13.868;2022-08-16T09:00:07;100520.13;;;28.73;43.51
68399;BME280;56258;52.196;13.868;2022-08-16T09:02:43;100516.06;;;28.76;43.35
68399;BME280;56258;52.196;13.868;2022-08-16T09:05:19;100530.31;;;28.78;43.74
68399;BME280;56258;52.196;13.868;2022-08-16T09:07:47;100524.97;;;28.83;43.23
68399;BME280;56258;52.196;13.868;2022-08-16T09:10:29;100525.19;;;28.82;43.24
68399;BME280;56258;52.196;13.868;2022-08-16T09:12:57;100520.53;;;28.82;43.19
68399;BME280;56258;52.196;13.868;2022-08-16T09:15:24;100522.78;;;28.85;43.16
68399;BME280;56258;52.196;13.868;2022-08-16T09:18:00;100523.38;;;28.87;43.21
68399;BME280;56258;52.196;13.868;2022-08-16T09:20:28;100521.25;;;28.89;43.19
68399;BME280;56258;52.196;13.868;2022-08-16T09:22:56;100521.97;;;28.85;43.28
68399;BME280;56258;52.196;13.868;2022-08-16T09:25:23;100530.28;;;28.90;43.37
68399;BME280;56258;52.196;13.868;2022-08-16T09:27:59;100525.81;;;29.00;42.97
68399;BME280;56258;52.196;13.868;2022-08-16T09:30:28;100532.22;;;29.06;42.95
68399;BME280;56258;52.196;13.868;2022-08-16T09:33:04;100528.97;;;29.09;42.83
68399;BME280;56258;52.196;13.868;2022-08-16T09:35:34;100523.75;;;29.08;42.92
68399;BME280;56258;52.196;13.868;2022-08-16T09:38:05;100526.47;;;29.08;42.99
68399;BME280;56258;52.196;13.868;2022-08-16T09:40:35;100519.09;;;29.08;43.00
68399;BME280;56258;52.196;13.868;2022-08-16T09:43:10;100523.25;;;29.11;42.93
68399;BME280;56258;52.196;13.868;2022-08-16T09:45:58;100520.09;;;29.19;42.50
68399;BME280;56258;52.196;13.868;2022-08-16T09:48:25;100523.81;;;29.29;42.32
68399;BME280;56258;52.196;13.868;2022-08-16T09:51:02;100524.38;;;29.31;42.70
68399;BME280;56258;52.196;13.868;2022-08-16T09:53:29;100514.56;;;29.35;41.97
68399;BME280;56258;52.196;13.868;2022-08-16T09:55:58;100515.66;;;29.51;41.88
68399;BME280;56258;52.196;13.868;2022-08-16T09:58:26;100519.81;;;29.54;41.67
68399;BME280;56258;52.196;13.868;2022-08-16T10:01:13;100516.06;;;29.60;41.48
68399;BME280;56258;52.196;13.868;2022-08-16T10:03:39;100517.13;;;29.59;41.86
68399;BME280;56258;52.196;13.868;2022-08-16T10:06:27;100520.06;;;29.52;41.75
68399;BME280;56258;52.196;13.868;2022-08-16T10:09:05;100519.69;;;29.66;41.95
68399;BME280;56258;52.196;13.868;2022-08-16T10:11:37;100520.41;;;29.78;41.27
68399;BME280;56258;52.196;13.868;2022-08-16T10:14:37;100516.16;;;29.87;41.42
68399;BME280;56258;52.196;13.868;2022-08-16T10:17:04;100515.88;;;29.88;41.22
68399;BME280;56258;52.196;13.868;2022-08-16T10:19:31;100514.16;;;30.04;40.96
68399;BME280;56258;52.196;13.868;2022-08-16T10:21:58;100511.56;;;30.14;40.58
68399;BME280;56258;52.196;13.868;2022-08-16T10:24:31;100505.03;;;30.20;40.07
68399;BME280;56258;52.196;13.868;2022-08-16T10:26:58;100500.28;;;30.38;39.93
68399;BME280;56258;52.196;13.868;2022-08-16T10:29:45;100508.66;;;30.53;39.59
68399;BME280;56258;52.196;13.868;2022-08-16T10:32:28;100513.44;;;30.63;39.43
68399;BME280;56258;52.196;13.868;2022-08-16T10:34:58;100505.44;;;30.88;38.95
68399;BME280;56258;52.196;13.868;2022-08-16T10:37:25;100501.81;;;31.15;38.95
68399;BME280;56258;52.196;13.868;2022-08-16T10:40:03;100510.00;;;31.47;37.88
68399;BME280;56258;52.196;13.868;2022-08-16T10:42:30;100504.56;;;31.15;38.28
68399;BME280;56258;52.196;13.868;2022-08-16T10:44:56;100507.00;;;31.11;38.85
68399;BME280;56258;52.196;13.868;2022-08-16T10:47:23;100506.91;;;31.80;37.19
68399;BME280;56258;52.196;13.868;2022-08-16T10:49:54;100506.31;;;31.73;37.34
68399;BME280;56258;52.196;13.868;2022-08-16T10:52:21;100503.88;;;30.97;39.27
68399;BME280;56258;52.196;13.868;2022-08-16T10:54:50;100506.06;;;30.63;39.70
68399;BME280;56258;52.196;13.868;2022-08-16T10:57:26;100508.25;;;31.30;38.00
68399;BME280;56258;52.196;13.868;2022-08-16T10:59:58;100515.28;;;31.16;38.29
68399;BME280;56258;52.196;13.868;2022-08-16T11:02:26;100520.38;;;33.05;35.00
68399;BME280;56258;52.196;13.868;2022-08-16T11:05:15;100502.78;;;33.01;35.07
68399;BME280;56258;52.196;13.868;2022-08-16T11:07:45;100509.44;;;31.45;37.62
68399;BME280;56258;52.196;13.868;2022-08-16T11:10:25;100508.69;;;32.22;36.57
68399;BME280;56258;52.196;13.868;2022-08-16T11:13:15;100511.50;;;33.59;34.19
68399;BME280;56258;52.196;13.868;2022-08-16T11:16:04;100513.09;;;34.79;32.54
68399;BME280;56258;52.196;13.868;2022-08-16T11:18:51;100515.31;;;33.74;33.75
68399;BME280;56258;52.196;13.868;2022-08-16T11:21:39;100520.53;;;33.75;33.76
68399;BME280;56258;52.196;13.868;2022-08-16T11:24:27;100516.63;;;34.90;31.91
68399;BME280;56258;52.196;13.868;2022-08-16T11:27:06;100520.28;;;35.44;31.17
68399;BME280;56258;52.196;13.868;2022-08-16T11:29:55;100515.50;;;35.73;30.32
68399;BME280;56258;52.196;13.868;2022-08-16T11:32:25;100520.97;;;35.25;30.69
68399;BME280;56258;52.196;13.868;2022-08-16T11:35:01;100521.47;;;33.20;34.67
68399;BME280;56258;52.196;13.868;2022-08-16T11:37:45;100522.59;;;33.14;35.09
68399;BME280;56258;52.196;13.868;2022-08-16T11:43:20;100527.25;;;37.48;27.66
68399;BME280;56258;52.196;13.868;2022-08-16T11:45:48;100524.91;;;38.24;26.78
68399;BME280;56258;52.196;13.868;2022-08-16T11:48:20;100510.47;;;38.36;26.45
68399;BME280;56258;52.196;13.868;2022-08-16T11:50:47;100513.97;;;38.28;26.42
68399;BME280;56258;52.196;13.868;2022-08-16T11:53:14;100517.53;;;37.64;27.17
68399;BME280;56258;52.196;13.868;2022-08-16T11:55:43;100513.44;;;37.76;27.31
68399;BME280;56258;52.196;13.868;2022-08-16T11:58:10;100505.81;;;37.40;27.68
68399;BME280;56258;52.196;13.868;2022-08-16T12:00:42;100507.13;;;36.96;28.69
68399;BME280;56258;52.196;13.868;2022-08-16T12:03:17;100500.03;;;37.04;28.20
68399;BME280;56258;52.196;13.868;2022-08-16T12:05:45;100508.72;;;36.65;28.76
68399;BME280;56258;52.196;13.868;2022-08-16T12:08:17;100509.75;;;35.46;30.40
68399;BME280;56258;52.196;13.868;2022-08-16T12:10:45;100511.97;;;33.82;33.25
68399;BME280;56258;52.196;13.868;2022-08-16T12:13:12;100511.56;;;32.98;34.98
68399;BME280;56258;52.196;13.868;2022-08-16T12:15:40;100511.00;;;34.17;33.09
68399;BME280;56258;52.196;13.868;2022-08-16T12:18:07;100510.50;;;32.89;34.97
68399;BME280;56258;52.196;13.868;2022-08-16T12:20:39;100510.16;;;32.50;35.99
68399;BME280;56258;52.196;13.868;2022-08-16T12:23:06;100510.88;;;32.10;36.59
68399;BME280;56258;52.196;13.868;2022-08-16T12:25:34;100510.31;;;32.13;37.12
68399;BME280;56258;52.196;13.868;2022-08-16T12:28:05;100508.03;;;31.84;37.74
68399;BME280;56258;52.196;13.868;2022-08-16T12:30:35;100515.81;;;31.55;38.33
68399;BME280;56258;52.196;13.868;2022-08-16T12:33:06;100510.13;;;31.72;37.56
68399;BME280;56258;52.196;13.868;2022-08-16T12:35:34;100512.31;;;31.70;37.91
68399;BME280;56258;52.196;13.868;2022-08-16T12:38:03;100508.47;;;31.71;37.89
68399;BME280;56258;52.196;13.868;2022-08-16T12:40:51;100502.00;;;31.40;38.40
68399;BME280;56258;52.196;13.868;2022-08-16T12:43:23;100503.78;;;31.19;39.03
68399;BME280;56258;52.196;13.868;2022-08-16T12:45:52;100504.16;;;31.01;39.01
68399;BME280;56258;52.196;13.868;2022-08-16T12:48:27;100504.28;;;31.16;38.95
68399;BME280;56258;52.196;13.868;2022-08-16T12:51:17;100497.75;;;30.90;39.75
68399;BME280;56258;52.196;13.868;2022-08-16T12:53:51;100507.78;;;30.74;39.41
68399;BME280;56258;52.196;13.868;2022-08-16T12:56:20;100502.72;;;30.61;39.84
68399;BME280;56258;52.196;13.868;2022-08-16T12:58:51;100499.34;;;30.54;40.46
68399;BME280;56258;52.196;13.868;2022-08-16T13:01:24;100497.50;;;30.60;40.03
68399;BME280;56258;52.196;13.868;2022-08-16T13:03:52;100493.44;;;30.94;40.03
68399;BME280;56258;52.196;13.868;2022-08-16T13:06:42;100494.69;;;30.82;39.81
68399;BME280;56258;52.196;13.868;2022-08-16T13:09:10;100491.63;;;30.78;39.54
68399;BME280;56258;52.196;13.868;2022-08-16T13:12:07;100490.16;;;30.65;39.70
68399;BME280;56258;52.196;13.868;2022-08-16T13:14:42;100483.34;;;31.05;39.85
68399;BME280;56258;52.196;13.868;2022-08-16T13:17:15;100493.72;;;31.35;38.88
68399;BME280;56258;52.196;13.868;2022-08-16T13:19:46;100492.25;;;31.64;38.21
68399;BME280;56258;52.196;13.868;2022-08-16T13:22:34;100477.84;;;31.47;38.09